Time;durP1;ratioP1;P1;durP2;ratioP2;P2;SDS_P1;SDS_P2;PMS_P1;PMS_P2;Temp;Humidity;BMP_temperature;BMP_pressure;BME280_temperature;BME280_humidity;BME280_pressure;Samples;Min_cycle;Max_cycle;Signal;HPM_P1;HPM_P2
2022/10/01 00:01:17;;;;;;;16.33;10.60;;;6.80;99.90;;;;;;4951399;28;20825;-66
2022/10/01 00:03:44;;;;;;;13.75;10.65;;;6.70;99.90;;;;;;4950083;28;20578;-69
2022/10/01 00:06:16;;;;;;;17.45;11.55;;;6.70;99.90;;;;;;4952411;28;20416;-69
2022/10/01 00:08:47;;;;;;;11.95;9.10;;;6.70;99.90;;;;;;4943829;28;20378;-68
2022/10/01 00:11:19;;;;;;;16.05;10.95;;;6.70;99.90;;;;;;4951706;28;20226;-68
2022/10/01 00:13:47;;;;;;;13.73;9.57;;;6.60;99.90;;;;;;4954571;28;20379;-68
2022/10/01 00:16:17;;;;;;;11.25;8.13;;;6.60;99.90;;;;;;4951611;28;20641;-68
2022/10/01 00:18:45;;;;;;;12.60;9.80;;;6.60;99.90;;;;;;4951441;28;20815;-69
2022/10/01 00:21:15;;;;;;;14.10;11.85;;;6.60;99.90;;;;;;4941925;28;20034;-68
2022/10/01 00:23:42;;;;;;;16.33;11.73;;;6.60;99.90;;;;;;4951271;28;20286;-69
2022/10/01 00:26:21;;;;;;;14.50;9.98;;;6.60;99.90;;;;;;4948815;28;20076;-69
2022/10/01 00:28:53;;;;;;;11.10;8.80;;;6.50;99.90;;;;;;4948983;28;20387;-68
2022/10/01 00:31:20;;;;;;;13.43;10.07;;;6.50;99.90;;;;;;4954013;28;20226;-69
2022/10/01 00:33:47;;;;;;;18.40;11.35;;;6.50;99.90;;;;;;4952199;28;20409;-69
2022/10/01 00:36:14;;;;;;;12.98;10.77;;;6.50;99.90;;;;;;4949426;28;20388;-68
2022/10/01 00:38:41;;;;;;;;;;;6.50;99.90;;;;;;4945830;28;20333;-68
2022/10/01 00:41:08;;;;;;;21.33;13.05;;;6.50;99.90;;;;;;4943399;28;20292;-69
2022/10/01 00:43:41;;;;;;;22.85;12.50;;;6.50;99.90;;;;;;4954084;28;20150;-68
2022/10/01 00:46:08;;;;;;;18.42;13.00;;;6.60;99.90;;;;;;4943664;28;20563;-69
2022/10/01 00:48:44;;;;;;;24.10;15.40;;;6.50;99.90;;;;;;4948987;28;20041;-68
2022/10/01 00:51:12;;;;;;;28.48;16.52;;;6.60;99.90;;;;;;4955276;28;20352;-68
2022/10/01 00:53:40;;;;;;;19.13;13.90;;;6.60;99.90;;;;;;4941197;28;20523;-69
2022/10/01 00:56:07;;;;;;;19.73;12.68;;;6.60;99.90;;;;;;4951023;28;20421;-68
2022/10/01 00:58:34;;;;;;;25.15;16.45;;;6.60;99.90;;;;;;4958125;28;20698;-68
2022/10/01 01:01:01;;;;;;;19.52;14.70;;;6.60;99.90;;;;;;4944675;28;20042;-68
2022/10/01 01:03:28;;;;;;;25.05;17.10;;;6.60;99.90;;;;;;4953520;28;20670;-68
2022/10/01 01:05:55;;;;;;;25.25;16.83;;;6.70;99.90;;;;;;4953990;28;20363;-68
2022/10/01 01:08:22;;;;;;;18.23;13.40;;;6.70;99.90;;;;;;4948488;28;20551;-68
2022/10/01 01:11:27;;;;;;;19.25;14.10;;;6.70;99.90;;;;;;4941206;28;20331;-69
2022/10/01 01:14:04;;;;;;;27.05;15.43;;;6.80;99.90;;;;;;4913180;28;20560;-68
2022/10/01 01:16:38;;;;;;;15.95;12.13;;;6.80;99.90;;;;;;4946778;28;20207;-68
2022/10/01 01:19:16;;;;;;;24.48;14.18;;;6.80;99.90;;;;;;4944247;28;20322;-68
2022/10/01 01:21:46;;;;;;;18.67;13.23;;;6.80;99.90;;;;;;4946902;28;20709;-69
2022/10/01 01:24:32;;;;;;;18.48;14.27;;;6.80;99.90;;;;;;4951626;28;20038;-68
2022/10/01 01:27:20;;;;;;;17.33;12.07;;;6.80;99.90;;;;;;4951467;28;20291;-69
2022/10/01 01:29:59;;;;;;;15.00;11.77;;;6.80;99.90;;;;;;4947482;28;20372;-68
2022/10/01 01:32:37;;;;;;;12.50;9.73;;;6.80;99.90;;;;;;4949697;28;20347;-68
2022/10/01 01:35:07;;;;;;;12.32;9.13;;;6.80;99.90;;;;;;4951353;28;20438;-68
2022/10/01 01:37:39;;;;;;;11.98;9.07;;;6.70;99.90;;;;;;4954278;28;20045;-68
2022/10/01 01:40:10;;;;;;;11.73;8.88;;;6.70;99.90;;;;;;4946099;28;20050;-68
2022/10/01 01:42:40;;;;;;;9.25;7.53;;;6.70;99.90;;;;;;4951093;28;20107;-68
2022/10/01 01:45:10;;;;;;;11.05;8.13;;;6.70;99.90;;;;;;4957963;28;20249;-68
2022/10/01 01:47:41;;;;;;;10.32;8.38;;;6.60;99.90;;;;;;4957708;28;20394;-68
2022/10/01 01:50:10;;;;;;;9.10;7.45;;;6.60;99.90;;;;;;4958251;28;20064;-68
2022/10/01 01:52:37;;;;;;;8.27;6.63;;;6.50;99.90;;;;;;4956168;28;20038;-68
2022/10/01 01:55:07;;;;;;;;;;;6.50;99.90;;;;;;4952382;28;20050;-68
2022/10/01 01:57:40;;;;;;;13.13;10.45;;;6.50;99.90;;;;;;4954741;28;20466;-68
2022/10/01 02:00:08;;;;;;;16.10;12.07;;;6.40;99.90;;;;;;4951565;28;20313;-68
2022/10/01 02:02:38;;;;;;;15.70;10.90;;;6.40;99.90;;;;;;4953461;28;20037;-68
2022/10/01 02:05:10;;;;;;;23.42;14.55;;;6.40;99.90;;;;;;4955410;28;20394;-68
2022/10/01 02:07:51;;;;;;;19.02;14.50;;;6.40;99.90;;;;;;4953875;28;20186;-69
2022/10/01 02:10:28;;;;;;;21.83;15.13;;;6.40;99.90;;;;;;4956711;28;20077;-71
2022/10/01 02:13:23;;;;;;;20.85;14.43;;;6.30;99.90;;;;;;4954340;28;20081;-68
2022/10/01 02:16:00;;;;;;;24.00;16.10;;;6.30;99.90;;;;;;4955461;28;20241;-68
2022/10/01 02:18:35;;;;;;;27.33;18.58;;;6.30;99.90;;;;;;4953646;28;20337;-69
2022/10/01 02:21:08;;;;;;;25.10;16.40;;;6.30;99.90;;;;;;4948355;28;20858;-67
2022/10/01 02:24:06;;;;;;;24.40;17.45;;;6.30;99.90;;;;;;4955269;28;20049;-68
2022/10/01 02:26:36;;;;;;;22.67;15.18;;;6.30;99.90;;;;;;4951427;28;20531;-69
2022/10/01 02:29:10;;;;;;;21.20;15.70;;;6.30;99.90;;;;;;4952635;28;20214;-68
2022/10/01 02:31:37;;;;;;;19.95;14.63;;;6.30;99.90;;;;;;4952653;28;20279;-68
2022/10/01 02:34:07;;;;;;;18.17;12.35;;;6.30;99.90;;;;;;4946891;28;20222;-69
2022/10/01 02:36:40;;;;;;;17.25;11.40;;;6.20;99.90;;;;;;4955821;28;20213;-68
2022/10/01 02:39:09;;;;;;;15.85;11.95;;;6.20;99.90;;;;;;4954886;28;20776;-69
2022/10/01 02:41:36;;;;;;;15.57;11.55;;;6.20;99.90;;;;;;4954790;28;20301;-68
2022/10/01 02:44:10;;;;;;;13.45;10.20;;;6.20;99.90;;;;;;4950856;28;20374;-68
2022/10/01 02:46:44;;;;;;;15.82;10.85;;;6.20;99.90;;;;;;4935342;28;20061;-69
2022/10/01 02:49:12;;;;;;;13.60;10.30;;;6.20;99.90;;;;;;4967402;28;20054;-68
2022/10/01 02:52:08;;;;;;;13.63;10.43;;;6.20;99.90;;;;;;4954363;28;20482;-68
2022/10/01 02:54:44;;;;;;;19.08;10.98;;;6.20;99.90;;;;;;4955783;28;20124;-69
2022/10/01 02:57:21;;;;;;;15.25;11.07;;;6.20;99.90;;;;;;4947588;28;20332;-67
2022/10/01 02:59:59;;;;;;;;;;;6.10;99.90;;;;;;4957349;28;20218;-68
2022/10/01 03:02:28;;;;;;;20.45;12.20;;;6.20;99.90;;;;;;4955119;28;20351;-69
2022/10/01 03:04:56;;;;;;;22.38;13.85;;;6.10;99.90;;;;;;4954143;28;20049;-70
2022/10/01 03:07:29;;;;;;;22.60;14.50;;;6.10;99.90;;;;;;4951734;28;20229;-69
2022/10/01 03:09:56;;;;;;;21.08;15.00;;;6.10;99.90;;;;;;4942761;28;20347;-68
2022/10/01 03:12:23;;;;;;;24.33;14.98;;;6.20;99.90;;;;;;4951755;28;20072;-68
2022/10/01 03:14:50;;;;;;;23.23;15.90;;;6.20;99.90;;;;;;4950666;28;20291;-69
2022/10/01 03:17:17;;;;;;;;;;;6.20;99.90;;;;;;4951513;28;20514;-68
2022/10/01 03:19:44;;;;;;;24.38;17.13;;;6.20;99.90;;;;;;4950523;28;20223;-68
2022/10/01 03:22:13;;;;;;;25.70;15.98;;;6.20;99.90;;;;;;4952018;28;20333;-67
2022/10/01 03:24:40;;;;;;;23.38;15.88;;;6.20;99.90;;;;;;4950295;28;20309;-66
2022/10/01 03:27:07;;;;;;;;;;;6.20;99.90;;;;;;4954248;28;20041;-68
2022/10/01 03:29:34;;;;;;;24.00;16.20;;;6.20;99.90;;;;;;4953998;28;20580;-69
2022/10/01 03:32:01;;;;;;;24.92;17.42;;;6.20;99.90;;;;;;4939224;28;20209;-68
2022/10/01 03:34:28;;;;;;;27.38;17.10;;;6.20;99.90;;;;;;4967242;28;20519;-68
2022/10/01 03:36:54;;;;;;;;;;;6.20;99.90;;;;;;4953544;28;20357;-68
2022/10/01 03:39:21;;;;;;;23.92;15.07;;;6.20;99.90;;;;;;4955457;28;19936;-68
2022/10/01 03:41:48;;;;;;;21.00;13.68;;;6.20;99.90;;;;;;4953157;28;20045;-68
2022/10/01 03:44:16;;;;;;;18.40;13.63;;;6.30;99.90;;;;;;4945504;28;20526;-68
2022/10/01 03:46:43;;;;;;;19.70;12.70;;;6.30;99.90;;;;;;4952665;28;20133;-67
2022/10/01 03:49:10;;;;;;;;;;;6.30;99.90;;;;;;4948469;28;20302;-68
2022/10/01 03:51:37;;;;;;;14.70;10.57;;;6.30;99.90;;;;;;4954792;28;20237;-69
2022/10/01 03:54:05;;;;;;;16.50;10.93;;;6.20;99.90;;;;;;4928499;28;20046;-68
2022/10/01 03:56:33;;;;;;;16.50;10.60;;;6.20;99.90;;;;;;4947437;28;20127;-67
2022/10/01 03:59:01;;;;;;;15.20;11.07;;;6.20;99.90;;;;;;4948864;28;20042;-71
2022/10/01 04:01:28;;;;;;;20.23;12.90;;;6.20;99.90;;;;;;4953762;28;20303;-68
2022/10/01 04:03:55;;;;;;;18.70;13.00;;;6.20;99.90;;;;;;4941427;28;20042;-68
2022/10/01 04:06:21;;;;;;;;;;;6.20;99.90;;;;;;4963676;28;20327;-68
2022/10/01 04:08:48;;;;;;;19.45;12.55;;;6.20;99.90;;;;;;4964296;28;19925;-68
2022/10/01 04:11:15;;;;;;;;;;;6.20;99.90;;;;;;4947573;28;20518;-68
2022/10/01 04:13:42;;;;;;;27.77;17.00;;;6.20;99.90;;;;;;4948214;28;19925;-68
2022/10/01 04:16:09;;;;;;;25.25;15.55;;;6.20;99.90;;;;;;4951335;28;20457;-68
2022/10/01 04:18:36;;;;;;;23.67;15.23;;;6.30;99.90;;;;;;4955289;28;20083;-68
2022/10/01 04:21:03;;;;;;;;;;;6.30;99.90;;;;;;4952833;28;20433;-68
2022/10/01 04:23:31;;;;;;;31.23;18.60;;;6.30;99.90;;;;;;4952972;28;20101;-69
2022/10/01 04:26:03;;;;;;;;;;;6.30;99.90;;;;;;4950673;28;20221;-68
2022/10/01 04:28:31;;;;;;;31.08;17.70;;;6.30;99.90;;;;;;4953559;28;20347;-68
2022/10/01 04:33:44;;;;;;;26.50;16.65;;;6.30;99.90;;;;;;4952793;28;20559;-68
2022/10/01 04:36:11;;;;;;;19.58;13.18;;;6.30;99.90;;;;;;4954449;28;20160;-67
2022/10/01 04:38:38;;;;;;;21.60;13.15;;;6.30;99.90;;;;;;4946328;28;20399;-68
2022/10/01 04:41:05;;;;;;;24.83;15.57;;;6.30;99.90;;;;;;4949880;28;20213;-68
2022/10/01 04:43:33;;;;;;;24.55;14.27;;;6.20;99.90;;;;;;4938200;28;20819;-67
2022/10/01 04:46:00;;;;;;;24.67;13.07;;;6.30;99.90;;;;;;4948708;28;20041;-72
2022/10/01 04:48:27;;;;;;;20.08;13.10;;;6.20;99.90;;;;;;4949364;28;20119;-68
2022/10/01 04:50:54;;;;;;;20.27;13.57;;;6.20;99.90;;;;;;4940442;28;20705;-68
2022/10/01 04:53:20;;;;;;;17.90;11.43;;;6.20;99.90;;;;;;4954509;28;20585;-68
2022/10/01 04:55:47;;;;;;;;;;;6.20;99.90;;;;;;4945775;28;20526;-68
2022/10/01 04:58:14;;;;;;;14.45;10.20;;;6.20;99.90;;;;;;4955584;28;19948;-68
2022/10/01 05:00:41;;;;;;;17.48;11.75;;;6.20;99.90;;;;;;4947384;28;20049;-68
2022/10/01 05:03:09;;;;;;;15.07;10.77;;;6.20;99.90;;;;;;4950086;28;20210;-69
2022/10/01 05:05:37;;;;;;;12.43;9.82;;;6.10;99.90;;;;;;4953267;28;20049;-72
2022/10/01 05:08:05;;;;;;;24.70;15.50;;;6.10;99.90;;;;;;4955034;28;20203;-68
2022/10/01 05:10:32;;;;;;;25.45;16.73;;;6.10;99.90;;;;;;4953933;28;20232;-69
2022/10/01 05:13:01;;;;;;;31.55;17.38;;;6.10;99.90;;;;;;4946222;28;20552;-69
2022/10/01 05:15:29;;;;;;;34.70;19.20;;;6.20;99.90;;;;;;4943566;28;20962;-69
2022/10/01 05:17:56;;;;;;;32.15;17.90;;;6.20;99.90;;;;;;4953142;28;20132;-69
2022/10/01 05:20:27;;;;;;;37.05;20.05;;;6.30;99.90;;;;;;4951229;28;20551;-68
2022/10/01 05:22:55;;;;;;;26.27;16.20;;;6.30;99.90;;;;;;4972408;28;20133;-68
2022/10/01 05:25:22;;;;;;;26.25;16.40;;;6.30;99.90;;;;;;4945366;28;20041;-68
2022/10/01 05:27:49;;;;;;;20.33;12.82;;;6.40;99.90;;;;;;4952237;28;20690;-68
2022/10/01 05:30:22;;;;;;;19.48;11.80;;;6.40;99.90;;;;;;4957401;28;20688;-69
2022/10/01 05:32:55;;;;;;;17.17;11.07;;;6.40;99.90;;;;;;4957693;28;20198;-69
2022/10/01 05:35:22;;;;;;;19.38;11.68;;;6.40;99.90;;;;;;4959962;28;20433;-69
2022/10/01 05:37:56;;;;;;;17.85;11.20;;;6.40;99.90;;;;;;4964650;28;20249;-69
2022/10/01 05:40:26;;;;;;;18.65;11.68;;;6.40;99.90;;;;;;4967194;28;20053;-69
2022/10/01 05:42:55;;;;;;;14.07;10.48;;;6.40;99.90;;;;;;4943322;28;20050;-69
2022/10/01 05:45:22;;;;;;;20.95;12.40;;;6.40;99.90;;;;;;4964016;28;20041;-68
2022/10/01 05:48:00;;;;;;;27.73;14.95;;;6.40;99.90;;;;;;4950445;28;20191;-67
2022/10/01 05:50:32;;;;;;;19.10;11.63;;;6.50;99.90;;;;;;4953004;28;20052;-68
2022/10/01 05:53:01;;;;;;;18.83;10.80;;;6.50;99.90;;;;;;4944008;28;20314;-68
2022/10/01 05:55:33;;;;;;;30.73;16.42;;;6.50;99.90;;;;;;4945136;28;20447;-68
2022/10/01 05:58:02;;;;;;;17.52;12.05;;;6.50;99.90;;;;;;4952014;28;20160;-69
2022/10/01 06:00:30;;;;;;;16.63;11.13;;;6.50;99.90;;;;;;4946817;28;20350;-68
2022/10/01 06:02:58;;;;;;;16.23;11.75;;;6.60;99.90;;;;;;4953400;28;20060;-54
2022/10/01 06:05:27;;;;;;;24.58;14.07;;;6.60;99.90;;;;;;4946098;28;20210;-53
2022/10/01 06:07:54;;;;;;;23.02;13.13;;;6.60;99.90;;;;;;4946211;28;20895;-53
2022/10/01 06:10:22;;;;;;;20.67;13.15;;;6.70;99.90;;;;;;4950093;28;20579;-54
2022/10/01 06:12:50;;;;;;;18.33;11.75;;;6.80;99.90;;;;;;4946147;28;20166;-53
2022/10/01 06:15:17;;;;;;;18.20;11.68;;;6.80;99.90;;;;;;4947518;28;20374;-55
2022/10/01 06:17:45;;;;;;;17.42;10.93;;;6.90;99.90;;;;;;4924866;28;20386;-54
2022/10/01 06:20:17;;;;;;;20.90;11.60;;;7.00;99.90;;;;;;4946175;28;20306;-54
2022/10/01 06:22:56;;;;;;;15.20;10.40;;;7.10;99.90;;;;;;4949309;28;20256;-54
2022/10/01 06:25:24;;;;;;;17.10;11.35;;;7.20;99.90;;;;;;4947238;28;20349;-53
2022/10/01 06:27:56;;;;;;;13.02;8.80;;;7.30;99.90;;;;;;4952930;28;20267;-53
2022/10/01 06:30:30;;;;;;;12.40;9.65;;;7.40;99.90;;;;;;4944604;28;20346;-54
2022/10/01 06:33:02;;;;;;;13.40;9.85;;;7.50;99.90;;;;;;4956759;28;20428;-53
2022/10/01 06:35:31;;;;;;;15.50;10.55;;;7.60;99.90;;;;;;4951948;28;20471;-54
2022/10/01 06:38:02;;;;;;;12.70;9.27;;;7.60;99.90;;;;;;4952234;28;20044;-54
2022/10/01 06:40:30;;;;;;;15.27;8.93;;;7.70;99.90;;;;;;4947189;28;20729;-52
2022/10/01 06:42:57;;;;;;;14.98;10.07;;;7.80;99.90;;;;;;4948601;28;20535;-52
2022/10/01 06:45:29;;;;;;;12.82;9.15;;;7.80;99.90;;;;;;4952092;28;20286;-54
2022/10/01 06:47:58;;;;;;;11.98;8.93;;;7.90;99.90;;;;;;4948032;28;20367;-56
2022/10/01 06:50:25;;;;;;;17.58;8.50;;;7.90;99.90;;;;;;4947376;28;20509;-53
2022/10/01 06:52:53;;;;;;;13.55;9.18;;;8.00;99.90;;;;;;4950718;28;20065;-52
2022/10/01 06:55:23;;;;;;;10.30;8.15;;;8.00;99.90;;;;;;4952175;28;20367;-55
2022/10/01 06:57:55;;;;;;;10.68;7.82;;;8.10;99.90;;;;;;4946339;28;20266;-53
2022/10/01 07:00:22;;;;;;;8.88;7.15;;;8.10;99.90;;;;;;4950116;28;20652;-53
2022/10/01 07:02:50;;;;;;;9.23;6.97;;;8.10;99.90;;;;;;4953156;28;20532;-54
2022/10/01 07:05:18;;;;;;;8.65;6.82;;;8.20;99.90;;;;;;4966602;28;20338;-55
2022/10/01 07:07:46;;;;;;;6.80;5.78;;;8.20;99.90;;;;;;4953575;28;20739;-53
2022/10/01 07:10:14;;;;;;;5.57;4.97;;;8.30;99.90;;;;;;4952074;28;20314;-54
2022/10/01 07:12:41;;;;;;;9.60;5.05;;;8.40;99.90;;;;;;4948668;28;20397;-52
2022/10/01 07:15:09;;;;;;;7.18;4.60;;;8.50;99.90;;;;;;4952985;28;20230;-53
2022/10/01 07:17:43;;;;;;;9.07;6.00;;;8.60;99.90;;;;;;4953245;28;20049;-51
2022/10/01 07:20:13;;;;;;;4.55;4.15;;;8.60;99.90;;;;;;4952375;28;20214;-53
2022/10/01 07:22:40;;;;;;;5.32;4.25;;;8.70;99.90;;;;;;4944816;28;20412;-53
2022/10/01 07:25:07;;;;;;;;;;;8.70;99.90;;;;;;4953516;28;20148;-52
2022/10/01 07:27:35;;;;;;;5.18;4.10;;;8.80;99.90;;;;;;4953772;28;20300;-53
2022/10/01 07:30:03;;;;;;;4.53;4.13;;;8.80;99.90;;;;;;4949633;28;20811;-55
2022/10/01 07:32:30;;;;;;;4.80;4.30;;;8.90;99.90;;;;;;4952728;28;20295;-54
2022/10/01 07:34:58;;;;;;;4.97;4.47;;;8.90;99.90;;;;;;4950507;28;20600;-54
2022/10/01 07:37:24;;;;;;;5.03;4.20;;;8.90;99.90;;;;;;4953001;28;20578;-54
2022/10/01 07:39:52;;;;;;;4.78;4.28;;;8.90;99.90;;;;;;4952948;28;20210;-54
2022/10/01 07:42:20;;;;;;;4.85;4.00;;;9.00;99.90;;;;;;4962266;28;20295;-55
2022/10/01 07:44:47;;;;;;;3.65;3.28;;;9.00;99.90;;;;;;4961341;28;20046;-54
2022/10/01 07:47:14;;;;;;;4.47;4.03;;;9.00;99.90;;;;;;4947433;28;20220;-55
2022/10/01 07:49:41;;;;;;;6.35;4.10;;;9.10;99.90;;;;;;4964085;28;20486;-52
2022/10/01 07:52:08;;;;;;;8.05;3.80;;;9.10;99.90;;;;;;4955372;28;20234;-62
2022/10/01 07:54:39;;;;;;;3.95;3.25;;;9.10;99.90;;;;;;4952102;28;20045;-53
2022/10/01 07:57:06;;;;;;;3.28;2.97;;;9.20;99.90;;;;;;4954146;28;20042;-53
2022/10/01 07:59:34;;;;;;;9.45;4.63;;;9.30;99.90;;;;;;4949656;28;20049;-53
2022/10/01 08:02:01;;;;;;;4.10;3.70;;;9.30;99.90;;;;;;4949015;28;20341;-52
2022/10/01 08:07:14;;;;;;;6.07;3.58;;;9.50;99.90;;;;;;4947772;28;20423;-57
2022/10/01 08:09:41;;;;;;;3.83;3.25;;;9.60;99.90;;;;;;4943734;28;20863;-54
2022/10/01 08:12:08;;;;;;;5.40;3.83;;;9.60;99.90;;;;;;4947118;28;20117;-63
2022/10/01 08:14:35;;;;;;;4.30;2.92;;;9.70;99.90;;;;;;4948739;28;20333;-54
2022/10/01 08:17:02;;;;;;;3.70;3.22;;;9.80;99.90;;;;;;4944360;28;20041;-55
2022/10/01 08:19:29;;;;;;;4.47;3.63;;;9.80;99.90;;;;;;4944283;28;20041;-54
2022/10/01 08:21:56;;;;;;;3.88;2.92;;;9.90;99.90;;;;;;4952862;28;20391;-54
2022/10/01 08:24:23;;;;;;;;;;;9.90;99.90;;;;;;4953793;28;20056;-55
2022/10/01 08:26:56;;;;;;;3.93;2.70;;;10.00;99.90;;;;;;4930229;28;20344;-55
2022/10/01 08:29:23;;;;;;;3.90;3.50;;;10.00;99.90;;;;;;4950464;28;20795;-54
2022/10/01 08:31:50;;;;;;;4.88;3.50;;;10.00;99.90;;;;;;4952866;28;20526;-54
2022/10/01 08:34:18;;;;;;;3.83;3.13;;;10.00;99.90;;;;;;4952541;28;20114;-56
2022/10/01 08:36:49;;;;;;;8.63;3.28;;;10.00;99.90;;;;;;4949882;28;20532;-57
2022/10/01 08:39:17;;;;;;;6.68;2.58;;;10.00;99.90;;;;;;4930316;28;20708;-55
2022/10/01 08:41:57;;;;;;;3.40;2.65;;;10.00;99.90;;;;;;4967663;28;20079;-55
2022/10/01 08:44:29;;;;;;;3.50;3.20;;;10.00;99.90;;;;;;4957823;28;20715;-55
2022/10/01 08:47:07;;;;;;;2.42;2.22;;;10.10;99.90;;;;;;4945454;28;20349;-56
2022/10/01 08:49:43;;;;;;;3.95;2.80;;;10.10;99.90;;;;;;4948788;28;20369;-52
2022/10/01 08:52:23;;;;;;;3.40;2.95;;;10.00;99.90;;;;;;4942511;28;20041;-51
2022/10/01 08:55:01;;;;;;;4.28;2.80;;;10.00;99.90;;;;;;4956573;28;20144;-53
2022/10/01 08:57:33;;;;;;;3.15;2.85;;;10.10;99.90;;;;;;4950549;28;20682;-53
2022/10/01 09:00:06;;;;;;;3.05;2.45;;;10.00;99.90;;;;;;4945275;28;20283;-54
2022/10/01 09:02:38;;;;;;;4.47;2.55;;;10.10;99.90;;;;;;4950288;28;20053;-55
2022/10/01 09:05:13;;;;;;;2.90;2.55;;;10.10;99.90;;;;;;4947840;28;20305;-54
2022/10/01 09:08:01;;;;;;;4.90;3.03;;;10.10;99.90;;;;;;4953144;28;20571;-53
2022/10/01 09:10:43;;;;;;;4.60;2.70;;;10.20;99.90;;;;;;4946753;28;20499;-54
2022/10/01 09:13:43;;;;;;;3.22;2.47;;;10.20;99.90;;;;;;4947690;28;20152;-55
2022/10/01 09:16:40;;;;;;;2.35;2.08;;;10.20;99.90;;;;;;4951467;28;20618;-55
2022/10/01 09:19:37;;;;;;;6.00;2.58;;;10.20;99.90;;;;;;4950522;28;20470;-53
2022/10/01 09:22:24;;;;;;;4.57;2.60;;;10.20;99.90;;;;;;4949485;28;20054;-54
2022/10/01 09:25:05;;;;;;;2.67;2.47;;;10.20;99.90;;;;;;4945326;28;20046;-53
2022/10/01 09:27:33;;;;;;;2.72;2.53;;;10.20;99.90;;;;;;4924327;28;20815;-64
2022/10/01 09:30:23;;;;;;;2.78;2.30;;;10.20;99.90;;;;;;4944872;28;20072;-55
2022/10/01 09:33:14;;;;;;;4.22;2.42;;;10.20;99.90;;;;;;4941990;28;20326;-61
2022/10/01 09:35:45;;;;;;;2.80;2.50;;;10.20;99.90;;;;;;4951542;28;20120;-57
2022/10/01 09:38:40;;;;;;;6.00;2.00;;;10.20;99.90;;;;;;4946668;28;20049;-53
2022/10/01 09:41:09;;;;;;;3.00;2.20;;;10.20;99.90;;;;;;4945999;28;20180;-54
2022/10/01 09:43:38;;;;;;;1.90;1.70;;;10.20;99.90;;;;;;4945024;28;20136;-52
2022/10/01 09:46:12;;;;;;;2.20;1.98;;;10.20;99.90;;;;;;4951289;28;20334;-54
2022/10/01 09:48:43;;;;;;;2.47;2.28;;;10.10;99.90;;;;;;4942772;28;20045;-53
2022/10/01 09:51:21;;;;;;;4.10;2.00;;;10.10;99.90;;;;;;4961426;28;20911;-55
2022/10/01 09:53:58;;;;;;;4.05;2.60;;;10.10;99.90;;;;;;4949073;28;20068;-54
2022/10/01 09:56:49;;;;;;;6.90;1.73;;;10.20;99.90;;;;;;4949761;28;20061;-56
2022/10/01 09:59:23;;;;;;;4.10;1.58;;;10.20;99.90;;;;;;4950341;28;20572;-59
2022/10/01 10:01:56;;;;;;;1.90;1.73;;;10.20;99.90;;;;;;4954747;28;20802;-58
2022/10/01 10:04:23;;;;;;;1.92;1.63;;;10.20;99.90;;;;;;4955318;28;20728;-55
2022/10/01 10:06:58;;;;;;;2.67;1.50;;;10.20;99.90;;;;;;4954064;28;20049;-57
2022/10/01 10:09:34;;;;;;;1.75;1.45;;;10.10;99.90;;;;;;4955165;28;20453;-58
2022/10/01 10:12:01;;;;;;;5.15;1.52;;;10.10;99.90;;;;;;4948605;28;20295;-56
2022/10/01 10:14:40;;;;;;;1.90;1.75;;;10.10;99.90;;;;;;4952501;28;20124;-58
2022/10/01 10:17:15;;;;;;;3.58;1.80;;;10.10;99.90;;;;;;4950993;28;20539;-56
2022/10/01 10:19:50;;;;;;;1.80;1.70;;;10.00;99.90;;;;;;4954301;28;20942;-58
2022/10/01 10:22:25;;;;;;;1.60;1.50;;;10.00;99.90;;;;;;4970681;28;20536;-56
2022/10/01 10:24:54;;;;;;;2.53;1.80;;;10.00;99.90;;;;;;4955852;28;20343;-56
2022/10/01 10:27:27;;;;;;;1.92;1.60;;;10.00;99.90;;;;;;4956472;28;20073;-57
2022/10/01 10:30:04;;;;;;;1.50;1.40;;;9.90;99.90;;;;;;4947203;28;20385;-58
2022/10/01 10:32:31;;;;;;;1.50;1.38;;;9.90;99.90;;;;;;4956611;28;20672;-56
2022/10/01 10:35:03;;;;;;;1.83;1.33;;;9.90;99.90;;;;;;4932868;28;20332;-57
2022/10/01 10:37:36;;;;;;;3.17;1.15;;;9.90;99.90;;;;;;4948216;28;20139;-54
2022/10/01 10:40:07;;;;;;;2.55;1.80;;;9.90;99.90;;;;;;4964611;28;20160;-52
2022/10/01 10:42:37;;;;;;;1.98;1.42;;;9.90;99.90;;;;;;4955805;28;20061;-54
2022/10/01 10:45:16;;;;;;;2.33;1.60;;;9.90;99.90;;;;;;4958535;28;20050;-55
2022/10/01 10:47:45;;;;;;;2.55;1.67;;;9.90;99.90;;;;;;4953451;28;20203;-55
2022/10/01 10:50:30;;;;;;;2.38;1.55;;;9.90;99.90;;;;;;4965415;28;20041;-54
2022/10/01 10:52:58;;;;;;;3.92;2.10;;;9.90;99.90;;;;;;4953725;28;20045;-55
2022/10/01 10:55:30;;;;;;;2.70;1.60;;;10.00;99.90;;;;;;4958667;28;20101;-54
2022/10/01 10:58:18;;;;;;;1.98;1.77;;;10.00;99.90;;;;;;4953283;28;20184;-54
2022/10/01 11:00:49;;;;;;;2.38;1.98;;;10.10;99.90;;;;;;4950400;28;20415;-52
2022/10/01 11:03:21;;;;;;;2.33;1.50;;;10.10;99.90;;;;;;4934596;28;20050;-54
2022/10/01 11:05:50;;;;;;;1.55;1.40;;;10.10;99.90;;;;;;4956806;28;20349;-54
2022/10/01 11:08:27;;;;;;;1.17;1.13;;;10.20;99.90;;;;;;4969312;28;20164;-54
2022/10/01 11:11:13;;;;;;;1.83;1.38;;;10.20;99.90;;;;;;4950796;28;20434;-55
2022/10/01 11:14:02;;;;;;;1.30;1.20;;;10.20;99.90;;;;;;4953016;28;20411;-52
2022/10/01 11:17:08;;;;;;;1.15;1.05;;;10.30;99.90;;;;;;4955757;28;20306;-59
2022/10/01 11:19:38;;;;;;;1.13;1.02;;;10.30;99.90;;;;;;4956684;28;20183;-54
2022/10/01 11:22:43;;;;;;;1.20;1.10;;;10.30;99.90;;;;;;4944754;28;20490;-53
2022/10/01 11:25:18;;;;;;;1.95;1.20;;;10.30;99.90;;;;;;4952171;28;20430;-55
2022/10/01 11:27:51;;;;;;;1.75;1.30;;;10.40;99.90;;;;;;4953273;28;20200;-55
2022/10/01 11:30:25;;;;;;;3.78;1.50;;;10.40;99.90;;;;;;4954971;28;20362;-55
2022/10/01 11:33:03;;;;;;;1.92;1.27;;;10.40;99.90;;;;;;4950580;28;20476;-55
2022/10/01 11:35:45;;;;;;;2.42;1.55;;;10.40;99.90;;;;;;4915005;28;20808;-53
2022/10/01 11:38:29;;;;;;;2.10;1.75;;;10.50;99.90;;;;;;4956214;28;20282;-54
2022/10/01 11:41:03;;;;;;;1.42;1.33;;;10.40;99.90;;;;;;4958400;28;20303;-57
2022/10/01 11:43:35;;;;;;;1.88;1.42;;;10.40;99.90;;;;;;4971341;28;20148;-54
2022/10/01 11:46:08;;;;;;;1.70;1.42;;;10.40;99.90;;;;;;4947974;28;20316;-55
2022/10/01 11:49:01;;;;;;;1.50;1.40;;;10.40;99.90;;;;;;4950426;28;20567;-53
2022/10/01 11:51:40;;;;;;;1.10;1.00;;;10.40;99.90;;;;;;4943369;28;20314;-55
2022/10/01 11:54:12;;;;;;;1.45;1.10;;;10.30;99.90;;;;;;4956253;28;20053;-53
2022/10/01 11:59:55;;;;;;;2.03;1.40;;;10.30;99.90;;;;;;4945072;28;20273;-53
2022/10/01 12:02:51;;;;;;;1.17;1.13;;;10.30;99.90;;;;;;4950152;28;20174;-51
2022/10/01 12:05:21;;;;;;;2.08;1.58;;;10.40;99.90;;;;;;4943783;28;20405;-54
2022/10/01 12:07:53;;;;;;;1.38;1.27;;;10.40;99.90;;;;;;4943642;28;20273;-54
2022/10/01 12:10:37;;;;;;;1.67;1.20;;;10.40;99.90;;;;;;4945165;28;20488;-52
2022/10/01 12:13:31;;;;;;;1.38;1.20;;;10.40;99.90;;;;;;4949366;28;20250;-54
2022/10/01 12:16:19;;;;;;;1.27;1.17;;;10.40;99.90;;;;;;4931335;28;21025;-52
2022/10/01 12:19:09;;;;;;;2.97;1.58;;;10.40;99.90;;;;;;4945714;28;20272;-54
2022/10/01 12:21:47;;;;;;;2.17;1.98;;;10.40;99.90;;;;;;4952135;28;20073;-53
2022/10/01 12:24:19;;;;;;;1.60;1.50;;;10.40;99.90;;;;;;4954777;28;20260;-55
2022/10/01 12:26:52;;;;;;;1.67;1.58;;;10.40;99.90;;;;;;4936717;28;20225;-53
2022/10/01 12:29:48;;;;;;;1.55;1.45;;;10.40;99.90;;;;;;4950939;28;20320;-55
2022/10/01 12:32:36;;;;;;;1.83;1.65;;;10.40;99.90;;;;;;4972172;28;20487;-56
2022/10/01 12:35:35;;;;;;;2.05;1.85;;;10.40;99.90;;;;;;4956470;28;20376;-55
2022/10/01 12:38:16;;;;;;;3.03;2.08;;;10.40;99.90;;;;;;4951042;28;20277;-55
2022/10/01 12:41:17;;;;;;;3.15;2.67;;;10.40;99.90;;;;;;4965878;28;20613;-55
2022/10/01 12:43:45;;;;;;;3.85;2.85;;;10.40;99.90;;;;;;4958981;28;20390;-55
2022/10/01 12:46:24;;;;;;;3.72;3.22;;;10.40;99.90;;;;;;4968959;28;20534;-54
2022/10/01 12:49:12;;;;;;;6.35;2.33;;;10.40;99.90;;;;;;4964207;28;20042;-54
2022/10/01 12:51:45;;;;;;;2.22;2.03;;;10.40;99.90;;;;;;4968123;28;20362;-54
2022/10/01 12:54:44;;;;;;;2.20;1.95;;;10.40;99.90;;;;;;4970212;28;20102;-54
2022/10/01 12:57:18;;;;;;;5.25;4.55;;;10.40;99.90;;;;;;4963493;28;20340;-54
2022/10/01 13:00:01;;;;;;;4.00;3.70;;;10.40;99.90;;;;;;4957674;28;20256;-55
2022/10/01 13:02:56;;;;;;;3.20;2.88;;;10.40;99.90;;;;;;4965626;28;20313;-55
2022/10/01 13:05:23;;;;;;;4.80;2.55;;;10.40;99.90;;;;;;4969511;28;20037;-52
2022/10/01 13:08:02;;;;;;;;;;;10.50;99.90;;;;;;4972018;28;20047;-54
2022/10/01 13:10:47;;;;;;;1.90;1.75;;;10.50;99.90;;;;;;4963726;28;19925;-54
2022/10/01 13:13:24;;;;;;;1.58;1.48;;;10.50;99.90;;;;;;4963179;28;20056;-53
2022/10/01 13:16:07;;;;;;;1.60;1.50;;;10.50;99.90;;;;;;4962786;28;20068;-55
2022/10/01 13:19:02;;;;;;;4.18;2.80;;;10.50;99.90;;;;;;4964320;28;20491;-54
2022/10/01 13:21:58;;;;;;;5.22;3.10;;;10.60;99.90;;;;;;4957578;28;20556;-52
2022/10/01 13:24:40;;;;;;;4.35;3.58;;;10.50;99.90;;;;;;4965270;28;20392;-56
2022/10/01 13:27:33;;;;;;;6.07;4.25;;;10.50;99.90;;;;;;4964606;28;20539;-55